createdAt,value
2022-10-17T00:02:31.478Z,100536.19
2022-10-17T00:05:35.680Z,100537.88
2022-10-17T00:08:41.769Z,100563.72
2022-10-17T00:11:46.107Z,100554.31
2022-10-17T00:14:50.537Z,100548.50
2022-10-17T00:17:57.772Z,100550.06
2022-10-17T00:21:02.307Z,100556.03
2022-10-17T00:24:07.391Z,100557.25
2022-10-17T00:27:11.746Z,100536.47
2022-10-17T00:30:17.816Z,100556.59
2022-10-17T00:33:22.471Z,100554.84
2022-10-17T00:36:28.170Z,100556.44
2022-10-17T00:39:32.761Z,100545.44
2022-10-17T00:42:37.282Z,100565.88
2022-10-17T00:45:41.838Z,100562.34
2022-10-17T00:48:53.336Z,100564.09
2022-10-17T00:52:01.859Z,100561.22
2022-10-17T00:55:24.727Z,100547.09
2022-10-17T00:58:29.572Z,100542.06
2022-10-17T01:01:34.019Z,100544.19
2022-10-17T01:04:41.206Z,100536.88
2022-10-17T01:07:47.201Z,100504.53
2022-10-17T01:11:07.030Z,100535.47
2022-10-17T01:14:46.764Z,100527.28
2022-10-17T01:18:14.751Z,100535.88
2022-10-17T01:21:28.779Z,100535.00
2022-10-17T01:24:49.036Z,100544.72
2022-10-17T01:28:12.562Z,100539.81
2022-10-17T01:31:21.551Z,100527.09
2022-10-17T01:34:41.938Z,100533.09
2022-10-17T01:38:04.412Z,100521.38
2022-10-17T01:41:16.801Z,100533.78
2022-10-17T01:44:38.225Z,100499.88
2022-10-17T01:47:44.240Z,100520.09
2022-10-17T01:51:08.337Z,100527.44
2022-10-17T01:54:40.681Z,100520.72
2022-10-17T01:57:52.903Z,100487.91
2022-10-17T02:00:59.862Z,100532.44
2022-10-17T02:04:10.797Z,100527.31
2022-10-17T02:07:15.173Z,100529.19
2022-10-17T02:10:47.543Z,100537.09
2022-10-17T02:13:52.248Z,100531.75
2022-10-17T02:17:17.004Z,100536.13
2022-10-17T02:20:44.752Z,100535.66
2022-10-17T02:24:22.477Z,100531.84
2022-10-17T02:27:42.427Z,100520.59
2022-10-17T02:31:16.257Z,100531.56
2022-10-17T02:34:31.213Z,100533.03
2022-10-17T02:37:36.968Z,100525.44
2022-10-17T02:40:43.002Z,100532.03
2022-10-17T02:43:50.501Z,100537.91
2022-10-17T02:47:03.000Z,100534.31
2022-10-17T02:50:08.609Z,100531.69
2022-10-17T02:53:29.498Z,100527.19
2022-10-17T02:56:42.459Z,100515.75
2022-10-17T02:59:48.309Z,100536.88
2022-10-17T03:02:54.807Z,100533.34
2022-10-17T03:05:59.510Z,100532.47
2022-10-17T03:09:05.217Z,100517.16
2022-10-17T03:12:10.010Z,100512.63
2022-10-17T03:15:15.158Z,100508.06
2022-10-17T03:18:20.430Z,100513.47
2022-10-17T03:21:26.331Z,100510.38
2022-10-17T03:24:30.841Z,100502.91
2022-10-17T03:27:35.620Z,100507.84
2022-10-17T03:30:40.377Z,100468.63
2022-10-17T03:33:45.983Z,100497.47
2022-10-17T03:36:50.435Z,100493.75
2022-10-17T03:39:55.767Z,100497.69
2022-10-17T03:43:00.104Z,100483.97
2022-10-17T03:46:06.192Z,100476.00
2022-10-17T03:49:11.622Z,100484.66
2022-10-17T03:52:17.537Z,100483.81
2022-10-17T03:55:22.247Z,100472.50
2022-10-17T03:58:27.242Z,100466.91
2022-10-17T04:01:32.858Z,100467.16
2022-10-17T04:04:37.687Z,100482.22
2022-10-17T04:07:42.525Z,100437.31
2022-10-17T04:10:47.962Z,100473.41
2022-10-17T04:13:57.533Z,100450.75
2022-10-17T04:17:03.527Z,100465.09
2022-10-17T04:20:09.935Z,100451.78
2022-10-17T04:23:14.576Z,100454.44
2022-10-17T04:26:19.846Z,100458.88
2022-10-17T04:29:25.388Z,100464.97
2022-10-17T04:32:39.501Z,100454.53
2022-10-17T04:36:03.090Z,100454.03
2022-10-17T04:39:08.781Z,100445.09
2022-10-17T04:42:13.681Z,100445.16
2022-10-17T04:45:18.923Z,100439.09
2022-10-17T04:48:25.039Z,100429.06
2022-10-17T04:51:29.688Z,100427.13
2022-10-17T04:54:56.195Z,100418.47
2022-10-17T04:58:00.766Z,100417.34
2022-10-17T05:01:09.532Z,100424.72
2022-10-17T05:04:15.174Z,100428.78
2022-10-17T05:07:19.967Z,100430.78
2022-10-17T05:10:45.536Z,100438.09
2022-10-17T05:13:56.118Z,100423.91
2022-10-17T05:17:01.280Z,100418.03
2022-10-17T05:20:07.301Z,100442.03
2022-10-17T05:23:12.918Z,100458.84
2022-10-17T05:26:21.838Z,100475.41
2022-10-17T05:29:26.508Z,100492.31
2022-10-17T05:32:40.245Z,100491.59
2022-10-17T05:35:45.653Z,100486.34
2022-10-17T05:38:54.260Z,100491.44
2022-10-17T05:41:59.576Z,100494.75
2022-10-17T05:45:05.915Z,100475.22
2022-10-17T05:48:10.575Z,100473.06
2022-10-17T05:51:15.145Z,100495.84
2022-10-17T05:54:20.140Z,100490.81
2022-10-17T05:57:28.659Z,100501.28
2022-10-17T06:00:34.499Z,100503.16
2022-10-17T06:03:39.199Z,100484.91
2022-10-17T06:06:43.869Z,100492.38
2022-10-17T06:09:48.172Z,100496.22
2022-10-17T06:12:52.640Z,100513.69
2022-10-17T06:15:58.084Z,100485.22
2022-10-17T06:19:02.615Z,100482.94
2022-10-17T06:22:06.917Z,100488.50
2022-10-17T06:25:12.264Z,100494.72
2022-10-17T06:28:16.932Z,100458.03
2022-10-17T06:31:21.167Z,100503.53
2022-10-17T06:34:26.588Z,100507.00
2022-10-17T06:37:36.947Z,100526.25
2022-10-17T06:40:45.372Z,100504.38
2022-10-17T06:43:49.834Z,100515.03
2022-10-17T06:47:14.332Z,100515.81
2022-10-17T06:50:21.339Z,100516.69
2022-10-17T06:53:36.947Z,100530.72
2022-10-17T06:56:47.761Z,100526.41
2022-10-17T07:00:10.898Z,100520.25
2022-10-17T07:03:20.855Z,100525.44
2022-10-17T07:06:26.800Z,100522.72
2022-10-17T07:09:34.526Z,100524.75
2022-10-17T07:12:39.227Z,100520.44
2022-10-17T07:15:44.087Z,100528.41
2022-10-17T07:18:51.489Z,100525.72
2022-10-17T07:21:56.755Z,100541.25
2022-10-17T07:25:01.735Z,100511.31
2022-10-17T07:28:40.556Z,100534.19
2022-10-17T07:31:58.014Z,100531.59
2022-10-17T07:35:02.594Z,100536.09
2022-10-17T07:38:07.622Z,100535.19
2022-10-17T07:41:17.878Z,100531.59
2022-10-17T07:44:25.903Z,100526.16
2022-10-17T07:47:32.557Z,100537.59
2022-10-17T07:50:37.524Z,100531.50
2022-10-17T07:53:46.445Z,100532.44
2022-10-17T07:56:55.642Z,100547.44
2022-10-17T08:00:00.189Z,100534.34
2022-10-17T08:03:05.962Z,100540.69
2022-10-17T08:06:09.885Z,100565.34
2022-10-17T08:09:14.439Z,100565.34
2022-10-17T08:12:19.198Z,100568.00
2022-10-17T08:15:26.806Z,100572.38
2022-10-17T08:18:37.011Z,100572.38
2022-10-17T08:21:45.670Z,100578.50
2022-10-17T08:24:53.209Z,100568.00
2022-10-17T08:27:57.759Z,100580.28
2022-10-17T08:31:07.249Z,100575.00
2022-10-17T08:34:11.619Z,100576.75
2022-10-17T08:37:16.623Z,100595.19
2022-10-17T08:40:27.940Z,100590.78
2022-10-17T08:43:47.383Z,100603.03
2022-10-17T08:46:55.271Z,100604.81
2022-10-17T08:50:04.424Z,100607.38
2022-10-17T08:53:39.252Z,100631.97
2022-10-17T08:56:50.191Z,100627.56
2022-10-17T08:59:56.047Z,100601.13
2022-10-17T09:03:03.159Z,100640.44
2022-10-17T09:06:19.079Z,100629.84
2022-10-17T09:09:29.287Z,100626.34
2022-10-17T09:12:39.374Z,100616.81
2022-10-17T09:15:49.807Z,100664.22
2022-10-17T09:19:09.891Z,100662.41
2022-10-17T09:22:20.060Z,100658.81
2022-10-17T09:25:25.201Z,100635.81
2022-10-17T09:28:35.232Z,100631.53
2022-10-17T09:31:48.544Z,100658.75
2022-10-17T09:34:55.513Z,100661.47
2022-10-17T09:38:00.345Z,100664.94
2022-10-17T09:41:19.979Z,100667.59
2022-10-17T09:44:36.646Z,100675.28
2022-10-17T09:47:54.305Z,100673.53
2022-10-17T09:51:14.781Z,100655.91
2022-10-17T09:54:46.643Z,100670.16
2022-10-17T09:58:00.007Z,100674.53
2022-10-17T10:01:21.095Z,100678.00
2022-10-17T10:04:30.420Z,100686.75
2022-10-17T10:07:41.440Z,100681.47
2022-10-17T10:10:46.472Z,100688.63
2022-10-17T10:13:52.114Z,100693.09
2022-10-17T10:16:57.932Z,100695.59
2022-10-17T10:20:03.013Z,100684.25
2022-10-17T10:23:14.715Z,100697.31
2022-10-17T10:26:33.839Z,100690.19
2022-10-17T10:29:50.867Z,100695.63
2022-10-17T10:36:23.632Z,100680.59
2022-10-17T10:39:46.126Z,100693.72
2022-10-17T10:43:05.106Z,100677.88
2022-10-17T10:46:28.279Z,100707.53
2022-10-17T10:49:34.337Z,100704.00
2022-10-17T10:52:48.611Z,100696.09
2022-10-17T10:56:28.321Z,100694.34
2022-10-17T11:00:03.501Z,100693.28
2022-10-17T11:03:37.627Z,100695.88
2022-10-17T11:06:46.700Z,100677.59
2022-10-17T11:10:09.920Z,100693.34
2022-10-17T11:13:24.597Z,100705.59
2022-10-17T11:17:04.203Z,100702.78
2022-10-17T11:20:33.682Z,100707.97
2022-10-17T11:24:02.895Z,100675.34
2022-10-17T11:27:11.869Z,100699.91
2022-10-17T11:30:17.935Z,100714.84
2022-10-17T11:33:41.217Z,100713.13
2022-10-17T11:36:49.835Z,100709.66
2022-10-17T11:40:02.410Z,100728.13
2022-10-17T11:43:11.439Z,100699.16
2022-10-17T11:46:25.446Z,100730.06
2022-10-17T11:49:52.213Z,100720.31
2022-10-17T11:53:06.378Z,100728.75
2022-10-17T11:56:12.911Z,100735.41
2022-10-17T12:00:05.087Z,100730.00
2022-10-17T12:03:41.882Z,100737.72
2022-10-17T12:07:10.098Z,100742.09
2022-10-17T12:10:23.341Z,100750.06
2022-10-17T12:13:31.166Z,100755.28
2022-10-17T12:16:36.107Z,100759.78
2022-10-17T12:19:41.219Z,100758.75
2022-10-17T12:22:49.483Z,100722.63
2022-10-17T12:26:04.721Z,100742.09
2022-10-17T12:29:29.746Z,100749.91
2022-10-17T12:32:53.365Z,100764.78
2022-10-17T12:36:24.845Z,100762.28
2022-10-17T12:39:29.724Z,100764.91
2022-10-17T12:42:46.387Z,100762.88
2022-10-17T12:46:01.684Z,100759.13
2022-10-17T12:49:42.685Z,100774.13
2022-10-17T12:52:58.708Z,100773.31
2022-10-17T12:56:11.203Z,100773.88
2022-10-17T12:59:29.522Z,100736.94
2022-10-17T13:02:34.859Z,100771.50
2022-10-17T13:05:46.551Z,100768.03
2022-10-17T13:09:09.120Z,100768.97
2022-10-17T13:12:23.242Z,100771.50
2022-10-17T13:15:27.816Z,100762.63
2022-10-17T13:18:32.330Z,100744.88
2022-10-17T13:21:38.076Z,100769.66
2022-10-17T13:24:42.658Z,100750.28
2022-10-17T13:27:47.493Z,100768.72
2022-10-17T13:30:53.690Z,100768.72
2022-10-17T13:34:01.628Z,100743.94
2022-10-17T13:37:11.479Z,100777.41
2022-10-17T13:43:46.416Z,100766.94
2022-10-17T13:46:51.881Z,100763.00
2022-10-17T13:49:57.643Z,100784.16
2022-10-17T13:53:27.975Z,100777.81
2022-10-17T13:56:32.755Z,100781.94
2022-10-17T13:59:42.258Z,100779.38
2022-10-17T14:02:46.936Z,100776.72
2022-10-17T14:06:14.105Z,100782.03
2022-10-17T14:09:27.426Z,100778.66
2022-10-17T14:12:31.691Z,100772.53
2022-10-17T14:15:37.810Z,100781.28
2022-10-17T14:18:48.258Z,100777.75
2022-10-17T14:22:12.777Z,100774.09
2022-10-17T14:25:39.053Z,100791.59
2022-10-17T14:28:45.636Z,100776.81
2022-10-17T14:31:51.455Z,100788.97
2022-10-17T14:35:05.519Z,100788.53
2022-10-17T14:38:17.676Z,100773.00
2022-10-17T14:41:44.111Z,100783.13
2022-10-17T14:44:54.840Z,100781.53
2022-10-17T14:48:24.707Z,100773.66
2022-10-17T14:51:40.077Z,100791.84
2022-10-17T14:54:54.955Z,100788.31
2022-10-17T14:57:59.940Z,100763.63
2022-10-17T15:01:04.366Z,100725.25
2022-10-17T15:04:11.602Z,100782.53
2022-10-17T15:07:19.655Z,100785.34
2022-10-17T15:10:34.858Z,100786.25
2022-10-17T15:13:44.687Z,100779.66
2022-10-17T15:16:50.001Z,100778.84
2022-10-17T15:19:54.634Z,100791.06
2022-10-17T15:23:01.852Z,100792.25
2022-10-17T15:26:20.629Z,100791.38
2022-10-17T15:29:24.987Z,100785.28
2022-10-17T15:32:30.839Z,100780.13
2022-10-17T15:35:35.138Z,100797.91
2022-10-17T15:38:39.295Z,100763.00
2022-10-17T15:41:46.142Z,100775.22
2022-10-17T15:44:51.112Z,100781.25
2022-10-17T15:48:05.371Z,100799.91
2022-10-17T15:51:10.740Z,100794.78
2022-10-17T15:54:14.948Z,100786.97
2022-10-17T15:57:29.008Z,100799.44
2022-10-17T16:00:33.710Z,100795.25
2022-10-17T16:03:38.261Z,100792.66
2022-10-17T16:06:46.002Z,100780.47
2022-10-17T16:09:50.687Z,100790.97
2022-10-17T16:12:55.671Z,100791.78
2022-10-17T16:16:00.093Z,100794.31
2022-10-17T16:19:05.097Z,100794.38
2022-10-17T16:22:33.722Z,100802.31
2022-10-17T16:25:38.214Z,100807.66
2022-10-17T16:28:46.081Z,100784.75
2022-10-17T16:31:50.747Z,100795.22
2022-10-17T16:34:57.517Z,100799.66
2022-10-17T16:38:01.806Z,100804.13
2022-10-17T16:44:37.273Z,100791.75
2022-10-17T16:47:41.835Z,100798.81
2022-10-17T16:50:46.025Z,100790.06
2022-10-17T16:53:54.924Z,100797.06
2022-10-17T16:56:59.250Z,100798.97
2022-10-17T17:00:04.340Z,100791.94
2022-10-17T17:03:08.963Z,100798.97
2022-10-17T17:06:22.690Z,100795.38
2022-10-17T17:09:27.362Z,100785.84
2022-10-17T17:12:38.210Z,100812.22
2022-10-17T17:15:42.630Z,100813.94
2022-10-17T17:18:47.626Z,100813.81
2022-10-17T17:21:51.974Z,100801.50
2022-10-17T17:24:56.306Z,100806.75
2022-10-17T17:28:06.269Z,100804.13
2022-10-17T17:31:23.099Z,100807.63
2022-10-17T17:34:27.487Z,100797.19
2022-10-17T17:37:32.203Z,100809.44
2022-10-17T17:40:38.428Z,100799.78
2022-10-17T17:43:44.557Z,100818.16
2022-10-17T17:46:48.959Z,100818.22
2022-10-17T17:49:55.068Z,100815.53
2022-10-17T17:53:00.853Z,100819.88
2022-10-17T17:56:07.342Z,100822.47
2022-10-17T17:59:14.257Z,100814.69
2022-10-17T18:02:18.711Z,100813.81
2022-10-17T18:05:23.049Z,100790.03
2022-10-17T18:08:28.054Z,100800.63
2022-10-17T18:11:32.435Z,100806.81
2022-10-17T18:14:42.522Z,100805.91
2022-10-17T18:17:46.782Z,100799.88
2022-10-17T18:20:51.338Z,100813.97
2022-10-17T18:24:00.105Z,100795.31
2022-10-17T18:27:04.475Z,100806.81
2022-10-17T18:30:09.696Z,100802.47
2022-10-17T18:33:15.387Z,100806.91
2022-10-17T18:36:20.787Z,100815.69
2022-10-17T18:39:27.619Z,100808.75
2022-10-17T18:42:32.003Z,100824.47
2022-10-17T18:45:37.629Z,100807.75
2022-10-17T18:48:47.580Z,100815.59
2022-10-17T18:51:52.623Z,100813.91
2022-10-17T18:54:56.955Z,100807.63
2022-10-17T18:58:02.780Z,100812.88
2022-10-17T19:01:11.264Z,100827.72
2022-10-17T19:04:18.080Z,100819.00
2022-10-17T19:07:22.655Z,100771.75
2022-10-17T19:10:29.783Z,100822.59
2022-10-17T19:13:35.942Z,100784.72
2022-10-17T19:16:42.972Z,100828.00
2022-10-17T19:19:52.452Z,100820.69
2022-10-17T19:22:56.750Z,100824.25
2022-10-17T19:26:12.034Z,100811.84
2022-10-17T19:29:19.296Z,100825.59
2022-10-17T19:32:23.610Z,100825.66
2022-10-17T19:35:28.023Z,100814.28
2022-10-17T19:38:33.372Z,100789.03
2022-10-17T19:41:37.585Z,100811.69
2022-10-17T19:44:41.906Z,100787.81
2022-10-17T19:47:46.649Z,100795.81
2022-10-17T19:50:51.742Z,100797.94
2022-10-17T19:53:58.327Z,100804.00
2022-10-17T19:57:04.638Z,100815.38
2022-10-17T20:00:11.967Z,100815.91
2022-10-17T20:03:16.090Z,100814.34
2022-10-17T20:06:21.022Z,100808.31
2022-10-17T20:09:25.936Z,100802.06
2022-10-17T20:12:33.132Z,100807.56
2022-10-17T20:15:38.621Z,100794.38
2022-10-17T20:18:44.057Z,100798.53
2022-10-17T20:21:50.629Z,100819.53
2022-10-17T20:24:54.922Z,100789.00
2022-10-17T20:27:59.879Z,100803.16
2022-10-17T20:31:04.267Z,100790.03
2022-10-17T20:34:08.643Z,100802.25
2022-10-17T20:37:13.183Z,100793.50
2022-10-17T20:40:34.146Z,100799.78
2022-10-17T20:43:42.903Z,100801.22
2022-10-17T20:47:00.586Z,100794.94
2022-10-17T20:50:06.400Z,100789.75
2022-10-17T20:53:35.361Z,100804.38
2022-10-17T20:56:37.058Z,100806.94
2022-10-17T20:59:41.266Z,100811.56
2022-10-17T21:02:45.869Z,100793.97
2022-10-17T21:05:50.588Z,100737.47
2022-10-17T21:08:56.691Z,100752.72
2022-10-17T21:12:05.985Z,100801.09
2022-10-17T21:15:11.806Z,100801.84
2022-10-17T21:18:15.958Z,100809.63
2022-10-17T21:21:27.594Z,100809.63
2022-10-17T21:24:32.906Z,100816.34
2022-10-17T21:27:37.417Z,100820.69
2022-10-17T21:30:41.790Z,100813.25
2022-10-17T21:33:50.014Z,100820.16
2022-10-17T21:36:54.873Z,100824.53
2022-10-17T21:39:59.328Z,100819.03
2022-10-17T21:43:03.643Z,100828.69
2022-10-17T21:46:21.685Z,100774.50
2022-10-17T21:49:26.981Z,100829.78
2022-10-17T21:52:31.796Z,100828.50
2022-10-17T21:55:39.395Z,100821.44
2022-10-17T21:58:44.261Z,100824.91
2022-10-17T22:01:48.900Z,100817.84
2022-10-17T22:04:53.536Z,100825.13
2022-10-17T22:07:57.955Z,100825.50
2022-10-17T22:11:08.509Z,100822.75
2022-10-17T22:14:16.442Z,100836.13
2022-10-17T22:17:21.119Z,100820.69
2022-10-17T22:20:25.417Z,100831.16
2022-10-17T22:23:33.466Z,100831.13
2022-10-17T22:26:43.630Z,100824.03
2022-10-17T22:29:50.609Z,100798.72
2022-10-17T22:32:57.358Z,100818.88
2022-10-17T22:36:01.848Z,100831.44
2022-10-17T22:39:06.757Z,100791.88
2022-10-17T22:42:11.238Z,100821.06
2022-10-17T22:45:15.842Z,100829.78
2022-10-17T22:48:21.718Z,100837.56
2022-10-17T22:51:26.283Z,100822.09
2022-10-17T22:54:30.624Z,100840.81
2022-10-17T22:57:35.313Z,100854.09
2022-10-17T23:00:40.388Z,100858.44
2022-10-17T23:03:45.339Z,100849.72
2022-10-17T23:06:49.547Z,100860.00
2022-10-17T23:09:54.201Z,100848.97
2022-10-17T23:12:59.956Z,100854.44
2022-10-17T23:16:04.652Z,100860.78
2022-10-17T23:19:09.057Z,100851.91
2022-10-17T23:22:13.384Z,100846.66
2022-10-17T23:25:20.040Z,100850.19
2022-10-17T23:28:24.498Z,100856.44
2022-10-17T23:31:28.863Z,100850.22
2022-10-17T23:34:33.345Z,100848.28
2022-10-17T23:37:38.724Z,100851.91
2022-10-17T23:40:43.203Z,100851.91
2022-10-17T23:43:47.775Z,100852.84
2022-10-17T23:46:52.041Z,100853.06
2022-10-17T23:49:56.472Z,100847.81
2022-10-17T23:53:00.946Z,100838.13
2022-10-17T23:56:06.701Z,100847.72
2022-10-17T23:59:11.391Z,100836.88
